Time;durP1;ratioP1;P1;durP2;ratioP2;P2;SDS_P1;SDS_P2;PMS_P1;PMS_P2;Temp;Humidity;BMP_temperature;BMP_pressure;BME280_temperature;BME280_humidity;BME280_pressure;Samples;Min_cycle;Max_cycle;Signal;HPM_P1;HPM_P2
2022/02/05 00:02:25;;;;;;;6.40;3.38;;;;;;;;;;4997885;28;20676;-78
2022/02/05 00:04:53;;;;;;;5.88;3.88;;;;;;;;;;4988622;28;20288;-78
2022/02/05 00:07:21;;;;;;;11.23;4.93;;;;;;;;;;4989296;28;20204;-77
2022/02/05 00:10:06;;;;;;;5.53;3.42;;;;;;;;;;4986591;28;20261;-77
2022/02/05 00:12:48;;;;;;;10.48;4.25;;;;;;;;;;4970735;28;20205;-76
2022/02/05 00:15:27;;;;;;;7.00;3.50;;;;;;;;;;4985627;28;20242;-78
2022/02/05 00:42:30;;;;;;;8.52;2.90;;;;;;;;;;4973525;28;20263;-76
2022/02/05 00:44:57;;;;;;;4.95;3.10;;;;;;;;;;4973590;28;20204;-79
2022/02/05 00:47:25;;;;;;;6.10;3.65;;;;;;;;;;4973326;28;20211;-77
2022/02/05 00:49:59;;;;;;;8.52;3.90;;;;;;;;;;4983705;28;20308;-77
2022/02/05 00:52:27;;;;;;;5.15;3.25;;;;;;;;;;4977144;28;20252;-78
2022/02/05 00:55:02;;;;;;;4.55;3.45;;;;;;;;;;4977906;28;20221;-78
2022/02/05 00:57:44;;;;;;;6.38;3.13;;;;;;;;;;4990458;28;20212;-78
2022/02/05 01:00:13;;;;;;;11.23;3.45;;;;;;;;;;4990384;28;20225;-77
2022/02/05 01:02:40;;;;;;;8.38;4.13;;;;;;;;;;4993086;28;20235;-77
2022/02/05 01:05:09;;;;;;;5.25;2.97;;;;;;;;;;4990187;28;20189;-76
2022/02/05 01:07:36;;;;;;;10.25;3.97;;;;;;;;;;4973870;28;20217;-77
2022/02/05 01:10:04;;;;;;;6.97;3.55;;;;;;;;;;4977496;28;20224;-76
2022/02/05 01:12:33;;;;;;;6.85;3.15;;;;;;;;;;4986636;28;20200;-77
2022/02/05 01:15:02;;;;;;;6.55;3.10;;;;;;;;;;4976020;28;20681;-79
2022/02/05 01:17:34;;;;;;;6.65;2.90;;;;;;;;;;4991520;28;20205;-77
2022/02/05 01:20:27;;;;;;;8.10;3.20;;;;;;;;;;4989465;28;20220;-77
2022/02/05 01:22:58;;;;;;;5.50;3.38;;;;;;;;;;4985296;28;20201;-76
2022/02/05 01:25:30;;;;;;;8.52;3.35;;;;;;;;;;4972853;28;20194;-76
2022/02/05 01:28:04;;;;;;;10.50;3.50;;;;;;;;;;4972662;28;20667;-79
2022/02/05 01:30:35;;;;;;;4.30;2.75;;;;;;;;;;4973322;28;20264;-77
2022/02/05 01:33:15;;;;;;;10.52;3.05;;;;;;;;;;4973202;28;20249;-76
2022/02/05 01:35:53;;;;;;;4.75;2.90;;;;;;;;;;4989270;28;20311;-77
2022/02/05 01:49:32;;;;;;;5.65;2.80;;;;;;;;;;4972198;28;20251;-76
2022/02/05 01:52:07;;;;;;;5.32;2.67;;;;;;;;;;4989796;28;20300;-78
2022/02/05 01:54:50;;;;;;;3.53;2.45;;;;;;;;;;4994052;28;20200;-78
2022/02/05 01:57:22;;;;;;;6.68;2.85;;;;;;;;;;4991510;28;20940;-76
2022/02/05 02:04:45;;;;;;;6.05;3.08;;;;;;;;;;4988276;28;20232;-76
2022/02/05 02:05:28;;;;;;;9.35;2.75;;;;;;;;;;4970591;28;20201;-77
2022/02/05 02:11:00;;;;;;;3.95;2.72;;;;;;;;;;4985840;28;20684;-78
2022/02/05 02:16:21;;;;;;;2.67;2.22;;;;;;;;;;4973416;28;20244;-77
2022/02/05 02:18:59;;;;;;;3.67;2.50;;;;;;;;;;4977094;28;20209;-77
2022/02/05 02:21:35;;;;;;;7.15;2.65;;;;;;;;;;4988569;28;20224;-78
2022/02/05 02:24:09;;;;;;;5.55;2.95;;;;;;;;;;4990369;28;20207;-78
2022/02/05 02:26:48;;;;;;;7.50;2.92;;;;;;;;;;4989944;28;20287;-76
2022/02/05 02:29:22;;;;;;;5.65;2.63;;;;;;;;;;4989027;28;20230;-79
2022/02/05 02:31:51;;;;;;;8.57;2.75;;;;;;;;;;4990893;28;20221;-78
2022/02/05 02:34:23;;;;;;;8.45;2.80;;;;;;;;;;4987399;28;20322;-76
2022/02/05 02:36:55;;;;;;;5.05;2.65;;;;;;;;;;4980147;28;20224;-78
2022/02/05 02:39:27;;;;;;;7.43;3.30;;;;;;;;;;4986298;28;20287;-78
2022/02/05 02:41:59;;;;;;;7.30;3.17;;;;;;;;;;4989027;28;20224;-76
2022/02/05 02:44:26;;;;;;;6.93;3.10;;;;;;;;;;4989644;28;20219;-77
2022/02/05 02:46:54;;;;;;;4.28;2.00;;;;;;;;;;4970224;28;20667;-78
2022/02/05 02:49:36;;;;;;;6.03;2.70;;;;;;;;;;4969887;28;20205;-78
2022/02/05 02:57:29;;;;;;;5.55;2.50;;;;;;;;;;4986113;28;20204;-78
2022/02/05 03:00:00;;;;;;;7.05;2.97;;;;;;;;;;4988328;28;20216;-80
2022/02/05 03:02:27;;;;;;;3.22;2.10;;;;;;;;;;4970571;28;20292;-77
2022/02/05 03:04:55;;;;;;;4.13;2.10;;;;;;;;;;4970153;28;20205;-79
2022/02/05 03:07:24;;;;;;;6.65;2.60;;;;;;;;;;4970297;28;20645;-78
2022/02/05 03:09:51;;;;;;;3.20;2.30;;;;;;;;;;4969919;28;20588;-77
2022/02/05 03:12:19;;;;;;;2.33;1.92;;;;;;;;;;4987477;28;20197;-78
2022/02/05 03:14:46;;;;;;;6.72;2.63;;;;;;;;;;4982892;28;20204;-78
2022/02/05 03:17:17;;;;;;;2.63;2.05;;;;;;;;;;4987851;28;20228;-79
2022/02/05 03:19:46;;;;;;;3.35;2.00;;;;;;;;;;4988975;28;20227;-78
2022/02/05 03:22:14;;;;;;;2.67;2.00;;;;;;;;;;4988203;28;20216;-79
2022/02/05 03:24:42;;;;;;;13.27;2.90;;;;;;;;;;4988939;28;20197;-77
2022/02/05 03:27:11;;;;;;;4.90;2.30;;;;;;;;;;4989820;28;20670;-79
2022/02/05 03:29:38;;;;;;;6.32;2.60;;;;;;;;;;4977220;28;20256;-77
2022/02/05 03:32:06;;;;;;;6.15;2.40;;;;;;;;;;4986196;28;20596;-79
2022/02/05 03:34:33;;;;;;;4.43;2.33;;;;;;;;;;4986954;28;20259;-76
2022/02/05 03:37:01;;;;;;;6.22;2.65;;;;;;;;;;4982381;28;20777;-78
2022/02/05 03:39:28;;;;;;;5.72;2.38;;;;;;;;;;4988817;28;20278;-79
2022/02/05 03:41:57;;;;;;;7.72;2.92;;;;;;;;;;4989208;28;20231;-78
2022/02/05 03:44:24;;;;;;;8.50;2.35;;;;;;;;;;4988773;28;20570;-78
2022/02/05 03:46:53;;;;;;;7.47;2.45;;;;;;;;;;4983982;28;20213;-77
2022/02/05 03:49:21;;;;;;;5.43;2.60;;;;;;;;;;4982286;28;20766;-78
2022/02/05 03:51:49;;;;;;;4.75;2.40;;;;;;;;;;4984481;28;20193;-77
2022/02/05 03:54:18;;;;;;;5.97;2.28;;;;;;;;;;4972237;28;20202;-78
2022/02/05 03:56:45;;;;;;;6.47;3.10;;;;;;;;;;4968381;28;20221;-78
2022/02/05 03:59:14;;;;;;;6.43;2.28;;;;;;;;;;4968940;28;20224;-76
2022/02/05 04:01:41;;;;;;;4.38;2.58;;;;;;;;;;4969427;28;20212;-78
2022/02/05 04:04:08;;;;;;;4.90;2.75;;;;;;;;;;4975217;28;20208;-78
2022/02/05 04:06:35;;;;;;;4.95;2.80;;;;;;;;;;4992732;28;20192;-78
2022/02/05 04:09:06;;;;;;;7.68;2.95;;;;;;;;;;4994809;28;20374;-78
2022/02/05 04:11:38;;;;;;;5.03;2.92;;;;;;;;;;4991285;28;20530;-77
2022/02/05 04:16:48;;;;;;;7.78;3.03;;;;;;;;;;4973106;28;20229;-79
2022/02/05 04:19:15;;;;;;;8.52;2.90;;;;;;;;;;4975113;28;20204;-78
2022/02/05 04:21:43;;;;;;;5.68;2.85;;;;;;;;;;4973121;28;20229;-78
2022/02/05 04:24:10;;;;;;;7.80;3.13;;;;;;;;;;4973635;28;20310;-79
2022/02/05 04:26:37;;;;;;;10.75;3.35;;;;;;;;;;4979599;28;20209;-77
2022/02/05 04:29:07;;;;;;;14.85;3.10;;;;;;;;;;4993216;28;20259;-78
2022/02/05 04:31:34;;;;;;;6.15;2.50;;;;;;;;;;4980788;28;20229;-77
2022/02/05 04:34:03;;;;;;;7.95;3.15;;;;;;;;;;4988225;28;20231;-78
2022/02/05 04:36:30;;;;;;;13.05;3.00;;;;;;;;;;4987502;28;20236;-77
2022/02/05 04:39:01;;;;;;;11.73;3.08;;;;;;;;;;4991432;28;20223;-79
2022/02/05 04:41:34;;;;;;;8.38;2.80;;;;;;;;;;4991312;28;20233;-77
2022/02/05 04:44:15;;;;;;;5.50;2.90;;;;;;;;;;4992059;28;20211;-79
2022/02/05 04:49:48;;;;;;;6.68;2.60;;;;;;;;;;4978775;28;20240;-77
2022/02/05 04:52:40;;;;;;;9.02;2.40;;;;;;;;;;4988506;28;20226;-77
2022/02/05 04:55:37;;;;;;;6.40;2.72;;;;;;;;;;4988592;28;20395;-78
2022/02/05 04:58:09;;;;;;;5.90;2.95;;;;;;;;;;4990142;28;20212;-77
2022/02/05 05:00:52;;;;;;;6.30;2.90;;;;;;;;;;4987730;28;20642;-78
2022/02/05 05:06:15;;;;;;;6.13;3.75;;;;;;;;;;4949707;28;20694;-77
2022/02/05 05:08:50;;;;;;;8.70;2.65;;;;;;;;;;4959301;28;20287;-78
2022/02/05 05:11:37;;;;;;;5.95;3.65;;;;;;;;;;4967287;28;20232;-78
2022/02/05 05:19:30;;;;;;;8.30;2.80;;;;;;;;;;4969149;28;20208;-78
2022/02/05 05:21:59;;;;;;;9.02;2.80;;;;;;;;;;4970075;28;20204;-78
2022/02/05 05:24:26;;;;;;;5.25;2.50;;;;;;;;;;4969869;28;20209;-78
2022/02/05 05:26:54;;;;;;;6.80;2.90;;;;;;;;;;4971063;28;20201;-76
2022/02/05 05:29:21;;;;;;;6.93;2.83;;;;;;;;;;4946154;29;20202;-76
2022/02/05 05:31:48;;;;;;;9.95;2.95;;;;;;;;;;4964886;28;20359;-76
2022/02/05 05:34:15;;;;;;;6.25;2.75;;;;;;;;;;4967271;28;20248;-78
2022/02/05 05:36:43;;;;;;;8.00;3.35;;;;;;;;;;4966369;28;20244;-77
2022/02/05 05:39:13;;;;;;;15.85;3.60;;;;;;;;;;4971068;28;20201;-77
2022/02/05 05:41:40;;;;;;;6.18;2.90;;;;;;;;;;4971687;28;20225;-79
2022/02/05 05:44:32;;;;;;;10.20;2.97;;;;;;;;;;4978184;28;20653;-78
2022/02/05 05:50:02;;;;;;;5.65;3.05;;;;;;;;;;5151840;27;20560;-77
2022/02/05 05:52:30;;;;;;;8.38;3.08;;;;;;;;;;5120288;27;20261;-78
2022/02/05 05:54:58;;;;;;;5.78;2.85;;;;;;;;;;5106029;28;20329;-77
2022/02/05 05:57:25;;;;;;;9.50;3.35;;;;;;;;;;5111341;28;20199;-78
2022/02/05 05:59:52;;;;;;;7.65;2.88;;;;;;;;;;5126345;27;20212;-78
2022/02/05 06:02:22;;;;;;;10.10;3.00;;;;;;;;;;5124640;27;20685;-77
2022/02/05 06:04:49;;;;;;;10.38;3.38;;;;;;;;;;5116930;27;20636;-77
2022/02/05 06:07:18;;;;;;;5.13;3.05;;;;;;;;;;5131901;27;20199;-77
2022/02/05 06:09:45;;;;;;;5.65;2.33;;;;;;;;;;5128623;27;20215;-79
2022/02/05 06:12:12;;;;;;;7.93;2.55;;;;;;;;;;5125377;27;20192;-77
2022/02/05 06:14:40;;;;;;;12.25;2.63;;;;;;;;;;5126241;27;20196;-78
2022/02/05 06:17:09;;;;;;;7.55;3.20;;;;;;;;;;5109181;28;20553;-78
2022/02/05 06:19:38;;;;;;;9.82;2.80;;;;;;;;;;5106317;28;20693;-77
2022/02/05 06:22:05;;;;;;;5.20;2.67;;;;;;;;;;5107287;28;20759;-78
2022/02/05 06:24:34;;;;;;;3.70;2.40;;;;;;;;;;5106866;28;20197;-78
2022/02/05 06:27:01;;;;;;;10.18;3.75;;;;;;;;;;5115004;27;20192;-78
2022/02/05 06:29:28;;;;;;;8.20;2.60;;;;;;;;;;5131244;27;20220;-78
2022/02/05 06:31:55;;;;;;;6.72;3.28;;;;;;;;;;5129584;27;20203;-76
2022/02/05 06:34:22;;;;;;;3.90;2.67;;;;;;;;;;5122081;27;20192;-75
2022/02/05 06:36:50;;;;;;;7.60;3.05;;;;;;;;;;5124754;27;20196;-77
2022/02/05 06:39:17;;;;;;;6.38;3.55;;;;;;;;;;5124818;27;20219;-77
2022/02/05 06:41:46;;;;;;;6.75;3.08;;;;;;;;;;5126152;27;20204;-77
2022/02/05 06:44:13;;;;;;;7.70;2.92;;;;;;;;;;5109664;27;20207;-76
2022/02/05 06:46:40;;;;;;;8.00;2.97;;;;;;;;;;5106791;28;20184;-77
2022/02/05 06:49:07;;;;;;;10.85;2.90;;;;;;;;;;5128044;27;20223;-76
2022/02/05 06:51:35;;;;;;;10.45;3.28;;;;;;;;;;5127692;27;20204;-76
2022/02/05 06:54:02;;;;;;;8.90;3.17;;;;;;;;;;5120885;27;20189;-76
2022/02/05 06:56:29;;;;;;;7.00;2.78;;;;;;;;;;5104836;28;20660;-77
2022/02/05 06:58:58;;;;;;;8.48;3.25;;;;;;;;;;5120802;28;20196;-76
2022/02/05 07:01:25;;;;;;;12.57;3.42;;;;;;;;;;5089428;28;20830;-76
2022/02/05 07:03:52;;;;;;;12.15;3.80;;;;;;;;;;5089375;28;20227;-76
2022/02/05 07:06:19;;;;;;;7.60;3.17;;;;;;;;;;5103308;27;20471;-77
2022/02/05 07:08:46;;;;;;;7.00;2.90;;;;;;;;;;5116501;27;20776;-77
2022/02/05 07:11:13;;;;;;;8.52;3.22;;;;;;;;;;5115901;27;20201;-77
2022/02/05 07:13:40;;;;;;;5.18;3.10;;;;;;;;;;5110441;28;20212;-76
2022/02/05 07:16:14;;;;;;;9.43;4.10;;;;;;;;;;5111395;28;20306;-76
2022/02/05 07:18:53;;;;;;;5.63;2.80;;;;;;;;;;5092300;28;20621;-76
2022/02/05 07:21:29;;;;;;;4.88;2.95;;;;;;;;;;5106056;27;20764;-76
2022/02/05 07:24:15;;;;;;;5.18;3.30;;;;;;;;;;5098672;27;20203;-76
2022/02/05 07:29:23;;;;;;;5.78;2.90;;;;;;;;;;5124958;27;20246;-77
2022/02/05 07:31:53;;;;;;;12.60;3.25;;;;;;;;;;5130282;27;20199;-76
2022/02/05 07:34:21;;;;;;;11.55;3.92;;;;;;;;;;5121045;27;20209;-76
2022/02/05 07:36:49;;;;;;;8.35;4.70;;;;;;;;;;5110971;28;20669;-77
2022/02/05 07:39:16;;;;;;;8.52;4.10;;;;;;;;;;5110829;28;20196;-77
2022/02/05 07:41:43;;;;;;;7.20;4.07;;;;;;;;;;5106833;27;20653;-78
2022/02/05 07:44:12;;;;;;;13.82;4.00;;;;;;;;;;5117519;27;20196;-78
2022/02/05 07:46:41;;;;;;;11.20;6.82;;;;;;;;;;5114100;27;20230;-77
2022/02/05 07:49:10;;;;;;;8.35;4.85;;;;;;;;;;5105327;28;20255;-76
2022/02/05 07:51:37;;;;;;;17.15;7.28;;;;;;;;;;5109796;27;20187;-77
2022/02/05 07:54:10;;;;;;;12.38;5.85;;;;;;;;;;5106845;28;20200;-76
2022/02/05 07:56:37;;;;;;;10.20;4.60;;;;;;;;;;5101543;27;20216;-75
2022/02/05 07:59:05;;;;;;;15.25;4.75;;;;;;;;;;5100600;27;20208;-77
2022/02/05 08:01:32;;;;;;;7.88;3.53;;;;;;;;;;5113460;27;20205;-76
2022/02/05 08:04:00;;;;;;;8.30;3.90;;;;;;;;;;5105386;27;20195;-79
2022/02/05 08:06:33;;;;;;;12.80;3.13;;;;;;;;;;5088756;28;20654;-76
2022/02/05 08:09:04;;;;;;;7.85;3.65;;;;;;;;;;5096206;28;20268;-76
2022/02/05 08:11:38;;;;;;;9.45;3.20;;;;;;;;;;5108716;28;20213;-76
2022/02/05 08:14:08;;;;;;;6.30;2.72;;;;;;;;;;5107168;28;20219;-77
2022/02/05 08:16:48;;;;;;;5.15;3.13;;;;;;;;;;5108937;28;20283;-79
2022/02/05 08:19:16;;;;;;;6.57;3.78;;;;;;;;;;5092616;28;20185;-75
2022/02/05 08:21:44;;;;;;;6.90;2.58;;;;;;;;;;5102560;27;20196;-77
2022/02/05 08:24:12;;;;;;;8.68;3.78;;;;;;;;;;5113506;27;20188;-77
2022/02/05 08:26:39;;;;;;;6.70;4.20;;;;;;;;;;5124825;27;20669;-77
2022/02/05 08:29:08;;;;;;;11.40;4.43;;;;;;;;;;5097759;27;20323;-76
2022/02/05 08:31:35;;;;;;;9.73;3.95;;;;;;;;;;5088401;28;20228;-73
2022/02/05 08:34:03;;;;;;;12.20;5.60;;;;;;;;;;5090382;28;20638;-76
2022/02/05 08:36:35;;;;;;;7.50;4.35;;;;;;;;;;5109005;28;20216;-76
2022/02/05 08:39:04;;;;;;;6.90;4.20;;;;;;;;;;5105053;28;20200;-80
2022/02/05 08:41:31;;;;;;;8.20;4.10;;;;;;;;;;5111517;27;20227;-78
2022/02/05 08:43:58;;;;;;;15.82;4.88;;;;;;;;;;5113008;27;20626;-77
2022/02/05 08:46:26;;;;;;;14.50;6.28;;;;;;;;;;5115466;27;20190;-76
2022/02/05 08:48:53;;;;;;;13.52;6.00;;;;;;;;;;5113120;27;20232;-77
2022/02/05 08:51:21;;;;;;;14.10;6.60;;;;;;;;;;5106156;28;20689;-77
2022/02/05 08:53:48;;;;;;;14.73;5.55;;;;;;;;;;5107993;28;20200;-76
2022/02/05 08:56:17;;;;;;;15.45;5.68;;;;;;;;;;5107903;28;20193;-79
2022/02/05 08:58:44;;;;;;;9.73;6.13;;;;;;;;;;5110211;28;20537;-76
2022/02/05 09:01:15;;;;;;;9.20;4.45;;;;;;;;;;5101635;27;20297;-77
2022/02/05 09:03:49;;;;;;;9.13;4.50;;;;;;;;;;5114636;27;20552;-78
2022/02/05 09:06:18;;;;;;;9.25;4.13;;;;;;;;;;5110760;27;20195;-76
2022/02/05 09:08:50;;;;;;;14.40;5.78;;;;;;;;;;5107734;28;20285;-77
2022/02/05 09:11:32;;;;;;;14.40;5.25;;;;;;;;;;5107420;28;20209;-76
2022/02/05 09:14:12;;;;;;;13.18;4.60;;;;;;;;;;5107726;28;20249;-76
2022/02/05 09:16:39;;;;;;;9.73;4.20;;;;;;;;;;5110269;28;20653;-77
2022/02/05 09:19:07;;;;;;;14.20;5.15;;;;;;;;;;5112405;27;20614;-79
2022/02/05 09:21:34;;;;;;;10.18;4.80;;;;;;;;;;5111826;27;20570;-77
2022/02/05 09:24:03;;;;;;;8.05;3.92;;;;;;;;;;5122680;27;20191;-78
2022/02/05 09:26:31;;;;;;;8.60;4.35;;;;;;;;;;5129195;27;20211;-77
2022/02/05 09:29:03;;;;;;;13.82;5.75;;;;;;;;;;5124129;27;20322;-77
2022/02/05 09:31:34;;;;;;;10.40;5.28;;;;;;;;;;5087820;28;20209;-77
2022/02/05 09:34:01;;;;;;;12.55;5.68;;;;;;;;;;5088970;28;20204;-77
2022/02/05 09:36:28;;;;;;;20.70;5.22;;;;;;;;;;5105769;27;20549;-77
2022/02/05 09:38:55;;;;;;;14.07;6.22;;;;;;;;;;5115217;27;20590;-77
2022/02/05 09:41:23;;;;;;;10.75;4.22;;;;;;;;;;5108036;27;20281;-77
2022/02/05 09:43:52;;;;;;;10.10;4.25;;;;;;;;;;5085796;28;20197;-76
2022/02/05 09:46:19;;;;;;;13.57;5.10;;;;;;;;;;5085814;28;20677;-77
2022/02/05 09:48:47;;;;;;;9.30;4.07;;;;;;;;;;5105262;28;20244;-78
2022/02/05 09:51:18;;;;;;;9.68;3.63;;;;;;;;;;5100631;28;20643;-78
2022/02/05 09:53:47;;;;;;;14.45;4.47;;;;;;;;;;5097369;28;20216;-80
2022/02/05 09:56:14;;;;;;;14.88;4.63;;;;;;;;;;5111908;28;20197;-79
2022/02/05 09:58:41;;;;;;;8.40;4.32;;;;;;;;;;5101681;28;20193;-84
2022/02/05 10:01:14;;;;;;;11.77;5.45;;;;;;;;;;5094178;28;20204;-78
2022/02/05 10:03:42;;;;;;;17.45;4.55;;;;;;;;;;5107826;28;20196;-80
2022/02/05 10:06:12;;;;;;;11.13;5.00;;;;;;;;;;5108007;28;20185;-79
2022/02/05 10:08:40;;;;;;;11.23;4.30;;;;;;;;;;5106496;28;20279;-81
2022/02/05 10:11:08;;;;;;;10.15;4.70;;;;;;;;;;5108437;28;20219;-79
2022/02/05 10:13:35;;;;;;;12.20;4.55;;;;;;;;;;5113737;27;20192;-79
2022/02/05 10:16:02;;;;;;;10.85;4.20;;;;;;;;;;5108092;28;20197;-79
2022/02/05 10:18:32;;;;;;;13.73;4.35;;;;;;;;;;5095990;28;20185;-80
2022/02/05 10:21:00;;;;;;;9.00;3.70;;;;;;;;;;5088111;28;20212;-78
2022/02/05 10:23:28;;;;;;;8.55;3.90;;;;;;;;;;5088419;28;20542;-80
2022/02/05 10:25:56;;;;;;;7.97;4.45;;;;;;;;;;5093249;28;20196;-78
2022/02/05 10:28:23;;;;;;;7.97;3.80;;;;;;;;;;5097350;27;20205;-79
2022/02/05 10:30:52;;;;;;;7.68;3.95;;;;;;;;;;5092107;28;20225;-78
2022/02/05 10:33:23;;;;;;;6.25;3.13;;;;;;;;;;5096427;28;20215;-79
2022/02/05 10:35:57;;;;;;;10.65;4.32;;;;;;;;;;5112067;27;20314;-80
2022/02/05 10:38:47;;;;;;;10.15;3.45;;;;;;;;;;5112945;27;20184;-81
2022/02/05 10:43:57;;;;;;;8.45;3.78;;;;;;;;;;5100528;27;22683;-79
2022/02/05 10:46:35;;;;;;;10.27;4.25;;;;;;;;;;5095110;28;20630;-79
2022/02/05 10:49:02;;;;;;;6.03;3.70;;;;;;;;;;5091096;28;20286;-79
2022/02/05 10:51:41;;;;;;;9.15;4.40;;;;;;;;;;5094810;27;20205;-78
2022/02/05 10:54:18;;;;;;;9.68;4.20;;;;;;;;;;5115699;27;20196;-78
2022/02/05 10:57:05;;;;;;;12.25;4.03;;;;;;;;;;5116659;27;20640;-77
2022/02/05 11:00:00;;;;;;;11.68;3.90;;;;;;;;;;5110759;28;20248;-77
2022/02/05 11:05:19;;;;;;;10.67;4.10;;;;;;;;;;5110413;28;20711;-77
2022/02/05 11:07:47;;;;;;;4.07;2.92;;;;;;;;;;5109422;28;20914;-78
2022/02/05 11:21:01;;;;;;;6.17;3.80;;;;;;;;;;5117662;27;20862;-77
2022/02/05 11:23:29;;;;;;;9.90;4.13;;;;;;;;;;5089677;28;20450;-77
2022/02/05 11:25:59;;;;;;;9.50;4.20;;;;;;;;;;5090872;28;20446;-77
2022/02/05 11:28:40;;;;;;;10.07;4.87;;;;;;;;;;5090639;28;20542;-78
2022/02/05 11:31:11;;;;;;;11.77;4.00;;;;;;;;;;5090276;28;20519;-77
2022/02/05 11:33:38;;;;;;;10.00;4.30;;;;;;;;;;5093654;28;20451;-78
2022/02/05 11:36:39;;;;;;;8.20;3.70;;;;;;;;;;5092881;28;20443;-77
2022/02/05 11:39:09;;;;;;;7.23;3.57;;;;;;;;;;5116626;27;20442;-78
2022/02/05 11:41:37;;;;;;;4.90;2.80;;;;;;;;;;5107405;27;20479;-82
2022/02/05 11:44:19;;;;;;;8.03;3.53;;;;;;;;;;5102486;28;20446;-76
2022/02/05 11:47:01;;;;;;;7.17;3.13;;;;;;;;;;5112509;27;20430;-77
2022/02/05 11:49:49;;;;;;;7.37;3.77;;;;;;;;;;5104384;28;20815;-77
2022/02/05 11:52:31;;;;;;;5.00;3.43;;;;;;;;;;5099703;28;20466;-77
2022/02/05 11:55:01;;;;;;;6.53;3.53;;;;;;;;;;5108168;27;20460;-78
2022/02/05 11:57:43;;;;;;;4.53;3.20;;;;;;;;;;5113272;27;20795;-82
2022/02/05 12:00:11;;;;;;;5.07;3.13;;;;;;;;;;5096482;27;21144;-80
2022/02/05 12:02:40;;;;;;;10.37;3.37;;;;;;;;;;5107618;28;20460;-79
2022/02/05 12:05:12;;;;;;;4.73;2.87;;;;;;;;;;5110783;28;20828;-81
2022/02/05 12:07:59;;;;;;;5.60;3.33;;;;;;;;;;5104380;28;21029;-82
2022/02/05 12:10:34;;;;;;;9.50;2.90;;;;;;;;;;5090222;28;20483;-77
2022/02/05 12:13:14;;;;;;;6.30;2.80;;;;;;;;;;5089861;28;20445;-75
2022/02/05 12:15:42;;;;;;;6.60;3.20;;;;;;;;;;5090928;28;20431;-76
2022/02/05 12:18:15;;;;;;;4.10;2.70;;;;;;;;;;5111043;27;20440;-79
2022/02/05 12:21:01;;;;;;;5.00;3.07;;;;;;;;;;5113217;27;20458;-77
2022/02/05 12:23:42;;;;;;;3.53;2.60;;;;;;;;;;5089078;28;20543;-78
2022/02/05 12:26:19;;;;;;;6.03;3.23;;;;;;;;;;5093656;28;20431;-77
2022/02/05 12:28:48;;;;;;;4.63;2.37;;;;;;;;;;5095789;28;20465;-77
2022/02/05 12:31:33;;;;;;;6.20;2.93;;;;;;;;;;5105450;28;20486;-78
2022/02/05 12:34:01;;;;;;;6.70;2.93;;;;;;;;;;5095676;28;21003;-78
2022/02/05 12:36:29;;;;;;;5.80;2.73;;;;;;;;;;5090417;28;20427;-79
2022/02/05 12:38:57;;;;;;;4.70;2.90;;;;;;;;;;5100387;27;21264;-78
2022/02/05 12:41:26;;;;;;;4.80;2.50;;;;;;;;;;5109606;27;20465;-78
2022/02/05 12:43:54;;;;;;;4.10;2.80;;;;;;;;;;5098731;27;20453;-77
2022/02/05 12:46:23;;;;;;;7.37;2.87;;;;;;;;;;5107478;28;20430;-78
2022/02/05 12:48:55;;;;;;;6.40;3.20;;;;;;;;;;5089064;28;20463;-77
2022/02/05 12:51:22;;;;;;;7.03;2.73;;;;;;;;;;5206467;22;20980;-78
2022/02/05 12:53:50;;;;;;;6.03;2.73;;;;;;;;;;5026519;28;20450;-78
2022/02/05 12:56:19;;;;;;;6.10;2.43;;;;;;;;;;5030974;28;20473;-77
2022/02/05 12:58:55;;;;;;;4.43;2.50;;;;;;;;;;5029545;28;20453;-76
2022/02/05 13:01:23;;;;;;;6.57;3.00;;;;;;;;;;5021094;28;20474;-78
2022/02/05 13:03:50;;;;;;;5.50;2.67;;;;;;;;;;5013503;28;20453;-79
2022/02/05 13:06:17;;;;;;;4.50;2.43;;;;;;;;;;5027810;28;20477;-77
2022/02/05 13:08:45;;;;;;;5.30;2.50;;;;;;;;;;5028241;28;20453;-77
2022/02/05 13:11:12;;;;;;;6.50;3.10;;;;;;;;;;5027825;28;20492;-77
2022/02/05 13:13:49;;;;;;;4.10;2.60;;;;;;;;;;5031197;28;20461;-77
2022/02/05 13:16:18;;;;;;;3.83;1.90;;;;;;;;;;5031801;28;20805;-77
2022/02/05 13:18:55;;;;;;;5.20;2.20;;;;;;;;;;5034430;28;20538;-78
2022/02/05 13:26:56;;;;;;;6.00;2.10;;;;;;;;;;5020155;28;20493;-80
2022/02/05 13:29:37;;;;;;;6.40;2.70;;;;;;;;;;5011173;28;20512;-81
2022/02/05 13:35:02;;;;;;;3.53;2.13;;;;;;;;;;5031330;28;20430;-83
2022/02/05 13:37:36;;;;;;;4.70;2.50;;;;;;;;;;5018502;28;20462;-79
2022/02/05 13:40:05;;;;;;;3.17;1.90;;;;;;;;;;5008767;28;20467;-80
2022/02/05 13:42:37;;;;;;;5.37;2.23;;;;;;;;;;5012815;28;21019;-81
2022/02/05 13:45:12;;;;;;;3.03;1.80;;;;;;;;;;5016046;28;20497;-83
2022/02/05 13:47:50;;;;;;;6.47;2.20;;;;;;;;;;5012647;28;20518;-81
2022/02/05 13:50:21;;;;;;;3.88;1.83;;;;;;;;;;5032701;28;20480;-80
2022/02/05 13:52:49;;;;;;;3.60;2.03;;;;;;;;;;5034392;28;20207;-84
2022/02/05 13:55:19;;;;;;;3.63;2.00;;;;;;;;;;5010977;28;20471;-81
2022/02/05 13:57:53;;;;;;;4.90;2.40;;;;;;;;;;5015410;28;20468;-79
2022/02/05 14:00:21;;;;;;;4.20;1.87;;;;;;;;;;5023870;28;20489;-77
2022/02/05 14:02:59;;;;;;;4.20;2.43;;;;;;;;;;5009632;28;20463;-77
2022/02/05 14:05:27;;;;;;;1.93;1.67;;;;;;;;;;5028532;28;20834;-77
2022/02/05 14:07:54;;;;;;;4.77;2.37;;;;;;;;;;5029007;28;20450;-77
2022/02/05 14:10:22;;;;;;;4.50;2.43;;;;;;;;;;5030664;28;20844;-78
2022/02/05 14:12:50;;;;;;;8.23;3.40;;;;;;;;;;5036864;28;20433;-83
2022/02/05 14:15:18;;;;;;;2.73;2.20;;;;;;;;;;5024473;28;20453;-83
2022/02/05 14:17:47;;;;;;;4.13;2.20;;;;;;;;;;5035911;28;20461;-84
2022/02/05 14:20:16;;;;;;;3.50;2.57;;;;;;;;;;5015106;28;20485;-80
2022/02/05 14:22:48;;;;;;;3.40;2.13;;;;;;;;;;5032763;28;20450;-82
2022/02/05 14:25:19;;;;;;;4.20;2.10;;;;;;;;;;5013853;28;20830;-82
2022/02/05 14:28:05;;;;;;;5.83;2.40;;;;;;;;;;5019041;28;20919;-77
2022/02/05 14:30:33;;;;;;;5.20;2.13;;;;;;;;;;5013927;28;20490;-81
2022/02/05 14:33:05;;;;;;;4.00;2.03;;;;;;;;;;5020585;28;20521;-78
2022/02/05 14:41:00;;;;;;;7.50;2.30;;;;;;;;;;5030848;28;20465;-77
2022/02/05 14:43:28;;;;;;;4.40;2.40;;;;;;;;;;5011495;28;20458;-77
2022/02/05 14:45:58;;;;;;;7.23;2.83;;;;;;;;;;5012284;28;20998;-77
2022/02/05 14:48:25;;;;;;;4.13;2.50;;;;;;;;;;5010993;28;20435;-77
2022/02/05 14:50:54;;;;;;;4.47;2.30;;;;;;;;;;5031910;28;21574;-77
2022/02/05 14:53:21;;;;;;;3.85;2.20;;;;;;;;;;5037414;28;20437;-77
2022/02/05 14:55:48;;;;;;;4.10;2.20;;;;;;;;;;5033881;28;20203;-77
2022/02/05 14:58:16;;;;;;;7.38;2.35;;;;;;;;;;5032273;28;20823;-78
2022/02/05 15:00:43;;;;;;;3.67;2.08;;;;;;;;;;5029917;28;20273;-78
2022/02/05 15:03:14;;;;;;;7.93;2.78;;;;;;;;;;5031984;28;20223;-78
2022/02/05 15:05:45;;;;;;;5.53;2.60;;;;;;;;;;5012773;28;20302;-77
2022/02/05 15:08:15;;;;;;;4.25;2.05;;;;;;;;;;5025026;28;20457;-77
2022/02/05 15:10:42;;;;;;;6.13;2.10;;;;;;;;;;5033753;28;20227;-79
2022/02/05 15:13:09;;;;;;;4.50;2.20;;;;;;;;;;5035477;28;20190;-77
2022/02/05 15:15:41;;;;;;;4.47;1.93;;;;;;;;;;5035865;28;20557;-77
2022/02/05 15:18:14;;;;;;;4.00;2.03;;;;;;;;;;5033517;28;20467;-78
2022/02/05 15:20:42;;;;;;;5.70;1.77;;;;;;;;;;5031036;28;21201;-78
2022/02/05 15:23:13;;;;;;;7.78;2.03;;;;;;;;;;5030515;28;20306;-78
2022/02/05 15:25:42;;;;;;;5.43;1.93;;;;;;;;;;5015062;28;20200;-78
2022/02/05 15:28:09;;;;;;;6.45;2.30;;;;;;;;;;5012137;28;20449;-79
2022/02/05 15:30:36;;;;;;;3.45;1.90;;;;;;;;;;5013647;28;20226;-78
2022/02/05 15:33:04;;;;;;;5.53;2.27;;;;;;;;;;5014685;28;20623;-78
2022/02/05 15:35:32;;;;;;;3.77;2.17;;;;;;;;;;5022469;28;20504;-78
2022/02/05 15:38:07;;;;;;;3.58;1.77;;;;;;;;;;5036170;28;20451;-77
2022/02/05 15:43:41;;;;;;;3.97;2.47;;;;;;;;;;5010823;28;20192;-80
2022/02/05 15:46:08;;;;;;;3.87;1.60;;;;;;;;;;5010831;28;20822;-77
2022/02/05 15:48:36;;;;;;;3.90;1.80;;;;;;;;;;5011434;28;20445;-78
2022/02/05 15:51:03;;;;;;;6.53;1.90;;;;;;;;;;5013238;28;20486;-77
2022/02/05 15:53:34;;;;;;;4.18;2.10;;;;;;;;;;5030924;28;20530;-77
2022/02/05 15:56:08;;;;;;;4.33;2.33;;;;;;;;;;5033092;28;20199;-78
2022/02/05 15:58:43;;;;;;;3.70;1.83;;;;;;;;;;5048899;28;20487;-77
2022/02/05 16:01:13;;;;;;;2.90;1.80;;;;;;;;;;5048303;28;20218;-76
2022/02/05 16:03:40;;;;;;;5.03;1.90;;;;;;;;;;5027951;28;20454;-78
2022/02/05 16:06:08;;;;;;;4.50;1.63;;;;;;;;;;5005772;28;20208;-79
2022/02/05 16:08:35;;;;;;;6.53;2.03;;;;;;;;;;5013000;28;20200;-78
2022/02/05 16:11:02;;;;;;;3.30;2.20;;;;;;;;;;5033345;28;20488;-77
2022/02/05 16:13:31;;;;;;;3.90;2.00;;;;;;;;;;5031081;28;20465;-75
2022/02/05 16:15:59;;;;;;;3.63;2.50;;;;;;;;;;5026181;28;20753;-77
2022/02/05 16:18:27;;;;;;;5.47;2.50;;;;;;;;;;5024949;28;20445;-80
2022/02/05 16:20:54;;;;;;;4.37;2.00;;;;;;;;;;5037312;28;20472;-77
2022/02/05 16:23:22;;;;;;;5.63;1.97;;;;;;;;;;5029869;28;20442;-78
2022/02/05 16:25:49;;;;;;;2.70;1.60;;;;;;;;;;5031761;28;20469;-78
2022/02/05 16:28:16;;;;;;;8.53;1.67;;;;;;;;;;5035567;28;20458;-79
2022/02/05 16:30:45;;;;;;;4.20;1.50;;;;;;;;;;5038159;28;20504;-78
2022/02/05 16:33:17;;;;;;;5.30;1.70;;;;;;;;;;5029885;28;20466;-78
2022/02/05 16:35:45;;;;;;;6.22;2.25;;;;;;;;;;5027363;28;20664;-77
2022/02/05 16:38:18;;;;;;;3.20;1.37;;;;;;;;;;5006895;28;20215;-77
2022/02/05 16:40:45;;;;;;;4.80;1.90;;;;;;;;;;5027635;28;20465;-78
2022/02/05 16:43:13;;;;;;;5.78;2.13;;;;;;;;;;5022012;28;20438;-78
2022/02/05 16:45:42;;;;;;;4.03;1.90;;;;;;;;;;5035512;28;20293;-78